Time;durP1;ratioP1;P1;durP2;ratioP2;P2;SDS_P1;SDS_P2;PMS_P1;PMS_P2;Temp;Humidity;BMP_temperature;BMP_pressure;BME280_temperature;BME280_humidity;BME280_pressure;Samples;Min_cycle;Max_cycle;Signal;HPM_P1;HPM_P2
2023/09/24 00:00:39;;;;;;;4.07;3.27;;;8.20;99.90;;;;;;2064041;28;20723;-81
2023/09/24 00:01:40;;;;;;;4.10;3.10;;;8.20;99.90;;;;;;2063756;28;20236;-82
2023/09/24 00:02:40;;;;;;;4.13;3.23;;;8.30;99.90;;;;;;2062225;28;20639;-82
2023/09/24 00:03:41;;;;;;;4.33;2.70;;;8.40;99.90;;;;;;2069200;28;20327;-82
2023/09/24 00:04:44;;;;;;;5.70;3.33;;;8.40;99.90;;;;;;2068220;28;20256;-82
2023/09/24 00:05:46;;;;;;;3.10;2.80;;;8.40;99.90;;;;;;2069066;28;20732;-82
2023/09/24 00:06:48;;;;;;;2.72;2.53;;;8.30;99.90;;;;;;2072226;28;20308;-81
2023/09/24 00:07:48;;;;;;;3.60;2.83;;;8.30;99.90;;;;;;2071336;28;20221;-81
2023/09/24 00:08:49;;;;;;;2.60;2.40;;;8.20;99.90;;;;;;2071423;28;20262;-81
2023/09/24 00:09:49;;;;;;;2.90;2.50;;;8.20;99.90;;;;;;2071909;28;20379;-81
2023/09/24 00:10:52;;;;;;;2.90;2.33;;;8.30;99.90;;;;;;2071146;28;20634;-82
2023/09/24 00:11:53;;;;;;;2.13;1.92;;;8.30;99.90;;;;;;2068830;28;20221;-81
2023/09/24 00:12:53;;;;;;;4.00;2.33;;;8.10;99.90;;;;;;2063347;28;20724;-81
2023/09/24 00:13:54;;;;;;;2.80;2.60;;;8.10;99.90;;;;;;2062962;28;20239;-81
2023/09/24 00:14:56;;;;;;;2.83;2.40;;;8.10;99.90;;;;;;2071442;28;20231;-81
2023/09/24 00:16:06;;;;;;;3.80;2.80;;;8.10;99.90;;;;;;2072388;28;20232;-81
2023/09/24 00:17:08;;;;;;;3.60;2.60;;;8.00;99.90;;;;;;2066968;28;20321;-81
2023/09/24 00:18:09;;;;;;;3.08;2.60;;;8.00;99.90;;;;;;2069342;28;20738;-81
2023/09/24 00:19:09;;;;;;;3.87;2.53;;;8.10;99.90;;;;;;2072109;28;20192;-80
2023/09/24 00:20:10;;;;;;;4.03;2.40;;;8.00;99.90;;;;;;2069012;28;20284;-81
2023/09/24 00:21:12;;;;;;;2.85;2.65;;;8.10;99.90;;;;;;2068755;28;20213;-81
2023/09/24 00:22:13;;;;;;;4.30;2.90;;;8.10;99.90;;;;;;2076741;28;20166;-79
2023/09/24 00:23:16;;;;;;;4.30;3.00;;;8.00;99.90;;;;;;2081472;28;20223;-80
2023/09/24 00:24:17;;;;;;;4.20;2.83;;;7.90;99.90;;;;;;2075501;28;20602;-80
2023/09/24 00:25:18;;;;;;;2.77;2.47;;;7.90;99.90;;;;;;2062870;28;20218;-81
2023/09/24 00:26:18;;;;;;;3.90;3.00;;;7.90;99.90;;;;;;2063262;28;20317;-80
2023/09/24 00:27:19;;;;;;;3.83;2.83;;;7.90;99.90;;;;;;2071291;28;20636;-80
2023/09/24 00:28:20;;;;;;;3.83;2.57;;;7.90;99.90;;;;;;2070509;28;20251;-80
2023/09/24 00:29:21;;;;;;;3.75;2.92;;;7.90;99.90;;;;;;2070865;28;20293;-81
2023/09/24 00:30:22;;;;;;;3.20;2.73;;;7.90;99.90;;;;;;2071262;28;20201;-81
2023/09/24 00:31:23;;;;;;;2.97;2.50;;;7.80;99.90;;;;;;2070836;28;20244;-80
2023/09/24 00:32:24;;;;;;;4.83;2.40;;;7.80;99.90;;;;;;2070788;28;20248;-81
2023/09/24 00:33:25;;;;;;;3.33;2.80;;;7.90;99.90;;;;;;2070938;28;20272;-80
2023/09/24 00:34:25;;;;;;;6.03;2.70;;;7.90;99.90;;;;;;2071207;28;20363;-81
2023/09/24 00:35:27;;;;;;;3.60;2.40;;;7.90;99.90;;;;;;2071515;28;20558;-81
2023/09/24 00:36:27;;;;;;;4.88;2.35;;;7.90;99.90;;;;;;2073537;28;20324;-81
2023/09/24 00:37:28;;;;;;;3.53;2.40;;;7.80;99.90;;;;;;2072714;28;20283;-79
2023/09/24 00:38:28;;;;;;;3.23;2.27;;;7.80;99.90;;;;;;2061543;28;20237;-81
2023/09/24 00:39:29;;;;;;;3.17;2.17;;;7.80;99.90;;;;;;2061472;28;20730;-81
2023/09/24 00:40:29;;;;;;;3.83;2.20;;;7.70;99.90;;;;;;2072439;28;20290;-81
2023/09/24 00:41:30;;;;;;;3.23;2.23;;;7.60;99.90;;;;;;2072612;28;20646;-81
2023/09/24 00:42:32;;;;;;;3.87;2.47;;;7.60;99.90;;;;;;2073402;28;20229;-82
2023/09/24 00:43:35;;;;;;;2.90;2.60;;;7.50;99.90;;;;;;2072791;28;20228;-82
2023/09/24 00:44:36;;;;;;;3.60;2.30;;;7.40;99.90;;;;;;2074303;28;20315;-81
2023/09/24 00:45:37;;;;;;;4.05;2.40;;;7.40;99.90;;;;;;2068476;28;20234;-79
2023/09/24 00:46:38;;;;;;;2.63;2.40;;;7.40;99.90;;;;;;2068468;28;20318;-81
2023/09/24 00:47:42;;;;;;;3.90;2.53;;;7.50;99.90;;;;;;2074823;28;20229;-82
2023/09/24 00:48:44;;;;;;;2.70;2.22;;;7.40;99.90;;;;;;2071432;28;20308;-82
2023/09/24 00:49:45;;;;;;;3.45;2.35;;;7.50;99.90;;;;;;2071233;28;20233;-82
2023/09/24 00:50:46;;;;;;;4.43;2.55;;;7.40;99.90;;;;;;2062955;28;20324;-82
2023/09/24 00:51:48;;;;;;;2.85;2.10;;;7.40;99.90;;;;;;2063500;28;20320;-82
2023/09/24 00:52:50;;;;;;;5.53;2.35;;;7.30;99.90;;;;;;2073170;28;20376;-82
2023/09/24 00:53:52;;;;;;;3.65;2.40;;;7.30;99.90;;;;;;2073333;28;20240;-82
2023/09/24 00:54:53;;;;;;;2.92;1.90;;;7.30;99.90;;;;;;2064201;28;20662;-82
2023/09/24 00:55:56;;;;;;;3.80;2.43;;;7.40;99.90;;;;;;2067025;28;20230;-82
2023/09/24 00:56:58;;;;;;;2.58;2.00;;;7.40;99.90;;;;;;2066355;28;20244;-81
2023/09/24 00:57:59;;;;;;;4.38;2.60;;;7.40;99.90;;;;;;2073085;28;20221;-82
2023/09/24 00:58:59;;;;;;;2.47;2.00;;;7.40;99.90;;;;;;2073330;28;20246;-82
2023/09/24 01:00:08;;;;;;;3.27;2.20;;;7.40;99.90;;;;;;2070597;28;20268;-81
2023/09/24 01:01:09;;;;;;;2.78;2.00;;;7.40;99.90;;;;;;2068610;28;20229;-82
2023/09/24 01:02:10;;;;;;;2.10;1.90;;;7.50;99.90;;;;;;2072115;28;20197;-82
2023/09/24 01:03:11;;;;;;;5.57;2.38;;;7.50;99.90;;;;;;2069599;28;20182;-82
2023/09/24 01:04:12;;;;;;;3.00;1.83;;;7.50;99.90;;;;;;2072353;28;20652;-82
2023/09/24 01:05:14;;;;;;;3.47;2.20;;;7.50;99.90;;;;;;2064036;28;20578;-82
2023/09/24 01:06:15;;;;;;;2.45;2.20;;;7.40;99.90;;;;;;2072064;28;20682;-80
2023/09/24 01:07:15;;;;;;;2.22;1.80;;;7.30;99.90;;;;;;2072943;28;20204;-82
2023/09/24 01:08:21;;;;;;;1.97;1.77;;;7.30;99.90;;;;;;2072899;28;20189;-82
2023/09/24 01:09:22;;;;;;;2.85;1.88;;;7.20;99.90;;;;;;2064893;28;20243;-82
2023/09/24 01:10:25;;;;;;;2.35;2.00;;;7.10;99.90;;;;;;2064706;28;20312;-81
2023/09/24 01:11:27;;;;;;;2.17;1.85;;;7.10;99.90;;;;;;2064559;28;20757;-82
2023/09/24 01:12:29;;;;;;;3.58;2.13;;;7.10;99.90;;;;;;2063845;28;20791;-81
2023/09/24 01:13:41;;;;;;;3.85;2.10;;;7.10;99.90;;;;;;2067950;28;20652;-82
2023/09/24 01:14:41;;;;;;;2.20;2.00;;;7.10;99.90;;;;;;2072700;28;20222;-82
2023/09/24 01:15:44;;;;;;;2.77;2.00;;;7.10;99.90;;;;;;2072865;28;20221;-82
2023/09/24 01:16:45;;;;;;;4.50;2.20;;;7.10;99.90;;;;;;2072233;28;20323;-81
2023/09/24 01:17:45;;;;;;;2.93;2.00;;;7.10;99.90;;;;;;2072110;28;20715;-82
2023/09/24 01:18:46;;;;;;;2.17;1.80;;;7.10;99.90;;;;;;2071876;28;20252;-82
2023/09/24 01:19:47;;;;;;;2.20;2.00;;;7.10;99.90;;;;;;2072310;28;20225;-82
2023/09/24 01:20:48;;;;;;;2.97;2.10;;;7.10;99.90;;;;;;2071856;28;20834;-81
2023/09/24 01:21:52;;;;;;;3.07;2.00;;;7.10;99.90;;;;;;2069380;28;20228;-82
2023/09/24 01:22:53;;;;;;;3.95;2.08;;;7.20;99.90;;;;;;2072591;28;20217;-81
2023/09/24 01:23:55;;;;;;;2.57;2.20;;;7.20;99.90;;;;;;2072484;28;20749;-82
2023/09/24 01:24:56;;;;;;;2.33;1.88;;;7.30;99.90;;;;;;2070342;28;20228;-82
2023/09/24 01:25:57;;;;;;;3.20;1.80;;;7.10;99.90;;;;;;2072166;28;20217;-81
2023/09/24 01:26:57;;;;;;;1.97;1.77;;;7.10;99.90;;;;;;2076925;28;20236;-79
2023/09/24 01:27:59;;;;;;;2.23;1.90;;;7.10;99.90;;;;;;2082906;28;20221;-80
2023/09/24 01:28:59;;;;;;;2.25;1.70;;;7.00;99.90;;;;;;2081625;28;20225;-81
2023/09/24 01:30:00;;;;;;;3.07;1.70;;;7.00;99.90;;;;;;2073158;28;20296;-81
2023/09/24 01:31:02;;;;;;;3.37;1.90;;;7.00;99.90;;;;;;2062687;28;20591;-81
2023/09/24 01:32:07;;;;;;;2.67;1.65;;;7.00;99.90;;;;;;2063343;28;20328;-81
2023/09/24 01:33:07;;;;;;;2.42;1.60;;;6.90;99.90;;;;;;2064377;28;20221;-82
2023/09/24 01:34:10;;;;;;;4.10;1.80;;;6.90;99.90;;;;;;2071432;28;20248;-82
2023/09/24 01:35:11;;;;;;;2.03;1.80;;;6.90;99.90;;;;;;2073328;28;20189;-82
2023/09/24 01:36:11;;;;;;;2.80;2.10;;;6.90;99.90;;;;;;2068486;28;20563;-82
2023/09/24 01:37:15;;;;;;;2.37;1.90;;;6.90;99.90;;;;;;2072450;28;20285;-82
2023/09/24 01:38:16;;;;;;;2.67;2.00;;;6.80;99.90;;;;;;2072142;28;20259;-82
2023/09/24 01:39:18;;;;;;;2.60;2.28;;;6.80;99.90;;;;;;2065401;28;20185;-80
2023/09/24 01:40:21;;;;;;;2.60;1.92;;;6.80;99.90;;;;;;2068040;28;20194;-81
2023/09/24 01:41:22;;;;;;;4.28;1.73;;;6.80;99.90;;;;;;2068937;28;20225;-80
2023/09/24 01:42:23;;;;;;;2.78;1.95;;;6.70;99.90;;;;;;2069389;28;20222;-80
2023/09/24 01:43:24;;;;;;;2.03;1.83;;;6.70;99.90;;;;;;2066251;28;20230;-81
2023/09/24 01:44:25;;;;;;;2.55;1.60;;;6.70;99.90;;;;;;2063902;28;20257;-80
2023/09/24 01:45:28;;;;;;;1.90;1.70;;;6.70;99.90;;;;;;2061306;28;20239;-82
2023/09/24 01:46:29;;;;;;;2.70;2.00;;;6.70;99.90;;;;;;2072122;28;20237;-82
2023/09/24 01:47:29;;;;;;;2.83;1.80;;;6.70;99.90;;;;;;2071650;28;20245;-81
2023/09/24 01:48:31;;;;;;;6.10;1.90;;;6.60;99.90;;;;;;2071985;28;20253;-82
2023/09/24 01:49:31;;;;;;;6.43;1.92;;;6.70;99.90;;;;;;2063428;28;20229;-84
2023/09/24 01:50:33;;;;;;;3.10;1.97;;;6.70;99.90;;;;;;2072022;28;20233;-81
2023/09/24 01:51:33;;;;;;;3.45;1.83;;;6.60;99.90;;;;;;2071895;28;20238;-82
2023/09/24 01:52:37;;;;;;;3.37;1.93;;;6.60;99.90;;;;;;2071704;28;20225;-81
2023/09/24 01:53:38;;;;;;;3.25;2.00;;;6.60;99.90;;;;;;2071669;28;20240;-80
2023/09/24 01:54:39;;;;;;;3.80;2.20;;;6.60;99.90;;;;;;2061050;28;20227;-80
2023/09/24 01:55:40;;;;;;;1.93;1.80;;;6.60;99.90;;;;;;2060861;28;20297;-82
2023/09/24 01:56:41;;;;;;;6.05;1.90;;;6.60;99.90;;;;;;2072173;28;20238;-80
2023/09/24 01:57:43;;;;;;;3.63;1.80;;;6.60;99.90;;;;;;2064310;28;20279;-82
2023/09/24 01:58:44;;;;;;;3.55;2.10;;;6.60;99.90;;;;;;2071326;28;20229;-82
2023/09/24 01:59:45;;;;;;;2.38;1.80;;;6.60;99.90;;;;;;2072590;28;20328;-81
2023/09/24 02:00:47;;;;;;;2.70;1.63;;;6.60;99.90;;;;;;2063555;28;20611;-82
2023/09/24 02:01:48;;;;;;;2.67;1.85;;;6.60;99.90;;;;;;2069827;28;20634;-82
2023/09/24 02:02:49;;;;;;;4.17;1.90;;;6.60;99.90;;;;;;2070038;28;20233;-82
2023/09/24 02:03:50;;;;;;;2.88;2.20;;;6.50;99.90;;;;;;2069359;28;20395;-83
2023/09/24 02:04:51;;;;;;;3.10;1.83;;;6.40;99.90;;;;;;2072004;28;20226;-83
2023/09/24 02:05:52;;;;;;;3.08;1.95;;;6.50;99.90;;;;;;2070013;28;20796;-81
2023/09/24 02:06:53;;;;;;;2.33;2.10;;;6.40;99.90;;;;;;2078137;28;20228;-82
2023/09/24 02:07:54;;;;;;;2.55;2.35;;;6.50;99.90;;;;;;2071956;28;20604;-81
2023/09/24 02:08:54;;;;;;;3.35;2.42;;;6.40;99.90;;;;;;2063151;28;20222;-82
2023/09/24 02:09:55;;;;;;;2.70;2.30;;;6.40;99.90;;;;;;2070602;28;20232;-82
2023/09/24 02:10:55;;;;;;;2.30;2.10;;;6.40;99.90;;;;;;2076703;28;20259;-82
2023/09/24 02:11:57;;;;;;;2.43;2.20;;;6.40;99.90;;;;;;2068597;28;20222;-82
2023/09/24 02:12:57;;;;;;;1.95;1.80;;;6.50;99.90;;;;;;2068833;28;20593;-82
2023/09/24 02:13:58;;;;;;;2.40;2.20;;;6.50;99.90;;;;;;2064659;28;20230;-82
2023/09/24 02:14:59;;;;;;;1.70;1.60;;;6.50;99.90;;;;;;2064263;28;20310;-82
2023/09/24 02:16:00;;;;;;;2.23;1.97;;;6.50;99.90;;;;;;2056314;28;20230;-82
2023/09/24 02:17:02;;;;;;;2.30;2.10;;;6.60;99.90;;;;;;2056546;28;20227;-82
2023/09/24 02:18:04;;;;;;;1.83;1.73;;;6.50;99.90;;;;;;2067035;28;20257;-82
2023/09/24 02:19:04;;;;;;;2.03;1.83;;;6.40;99.90;;;;;;2071132;28;20288;-82
2023/09/24 02:20:31;;;;;;;2.30;1.70;;;6.30;99.90;;;;;;2063692;28;20186;-81
2023/09/24 02:21:32;;;;;;;3.08;2.10;;;6.20;99.90;;;;;;2067470;28;20234;-81
2023/09/24 02:22:32;;;;;;;3.63;2.00;;;6.20;99.90;;;;;;2068075;28;20236;-82
2023/09/24 02:23:34;;;;;;;2.00;1.80;;;6.10;99.90;;;;;;2070989;28;20221;-82
2023/09/24 02:24:35;;;;;;;2.00;1.70;;;6.10;99.90;;;;;;2066995;28;20284;-82
2023/09/24 02:25:37;;;;;;;2.60;2.00;;;6.10;99.90;;;;;;2067187;28;20235;-82
2023/09/24 02:26:37;;;;;;;2.58;1.85;;;6.10;99.90;;;;;;2073488;28;20233;-82
2023/09/24 02:27:38;;;;;;;2.13;1.93;;;6.10;99.90;;;;;;2067565;28;20295;-80
2023/09/24 02:28:39;;;;;;;2.85;1.98;;;6.00;99.90;;;;;;2063829;28;20234;-82
2023/09/24 02:29:40;;;;;;;1.53;1.43;;;6.00;99.90;;;;;;2068943;28;20248;-82
2023/09/24 02:30:40;;;;;;;2.20;1.77;;;6.10;99.90;;;;;;2071351;28;20225;-82
2023/09/24 02:31:41;;;;;;;1.80;1.70;;;6.10;99.90;;;;;;2071567;28;20228;-82
2023/09/24 02:32:43;;;;;;;2.37;1.63;;;6.10;99.90;;;;;;2063289;28;20283;-82
2023/09/24 02:33:44;;;;;;;2.72;1.70;;;6.10;99.90;;;;;;2071793;28;20660;-81
2023/09/24 02:34:44;;;;;;;2.07;1.90;;;6.10;99.90;;;;;;2071138;28;20255;-82
2023/09/24 02:35:45;;;;;;;2.13;1.73;;;6.10;99.90;;;;;;2071401;28;20266;-82
2023/09/24 02:36:45;;;;;;;2.30;1.90;;;6.00;99.90;;;;;;2071483;28;20245;-81
2023/09/24 02:37:50;;;;;;;1.80;1.50;;;6.10;99.90;;;;;;2069628;28;20261;-81
2023/09/24 02:38:51;;;;;;;2.38;1.95;;;6.10;99.90;;;;;;2078339;28;20240;-82
2023/09/24 02:39:52;;;;;;;3.07;2.07;;;6.10;99.90;;;;;;2078000;28;20240;-82
2023/09/24 02:40:55;;;;;;;4.83;1.70;;;6.00;99.90;;;;;;2069513;28;20233;-81
2023/09/24 02:41:56;;;;;;;2.13;1.70;;;6.10;99.90;;;;;;2077956;28;20467;-81
2023/09/24 02:42:58;;;;;;;3.13;1.70;;;6.10;99.90;;;;;;2076145;28;20321;-80
2023/09/24 02:44:01;;;;;;;2.50;1.63;;;6.10;99.90;;;;;;2072981;28;20340;-82
2023/09/24 02:45:02;;;;;;;1.70;1.60;;;6.20;99.90;;;;;;2072008;28;20221;-81
2023/09/24 02:46:05;;;;;;;2.83;1.67;;;6.20;99.90;;;;;;2071056;28;20227;-82
2023/09/24 02:47:06;;;;;;;2.95;1.80;;;6.20;99.90;;;;;;2068127;28;20189;-82
2023/09/24 02:48:07;;;;;;;2.63;1.50;;;6.20;99.90;;;;;;2062911;28;20742;-82
2023/09/24 02:49:08;;;;;;;1.80;1.50;;;6.20;99.90;;;;;;2070895;28;20181;-82
2023/09/24 02:50:12;;;;;;;1.93;1.70;;;6.20;99.90;;;;;;2072813;28;20920;-82
2023/09/24 02:51:13;;;;;;;2.55;1.90;;;6.20;99.90;;;;;;2070991;28;20675;-82
2023/09/24 02:52:15;;;;;;;1.98;1.55;;;6.20;99.90;;;;;;2071346;28;20231;-81
2023/09/24 02:53:16;;;;;;;2.95;1.60;;;6.20;99.90;;;;;;2070693;28;20543;-82
2023/09/24 02:54:16;;;;;;;3.58;1.63;;;6.20;99.90;;;;;;2071266;28;20181;-82
2023/09/24 02:55:18;;;;;;;1.70;1.57;;;6.20;99.90;;;;;;2071884;28;20216;-81
2023/09/24 02:56:19;;;;;;;3.47;1.90;;;6.10;99.90;;;;;;2072167;28;20334;-82
2023/09/24 02:57:19;;;;;;;1.90;1.30;;;6.20;99.90;;;;;;2070874;28;20197;-83
2023/09/24 02:58:20;;;;;;;1.90;1.50;;;6.10;99.90;;;;;;2068546;28;20247;-82
2023/09/24 02:59:20;;;;;;;2.07;1.67;;;6.20;99.90;;;;;;2066054;28;20220;-81
2023/09/24 03:00:36;;;;;;;1.97;1.40;;;6.20;99.90;;;;;;2078874;28;20231;-82
2023/09/24 03:01:37;;;;;;;1.70;1.50;;;6.20;99.90;;;;;;2066633;28;20244;-81
2023/09/24 03:02:38;;;;;;;2.10;1.80;;;6.00;99.90;;;;;;2071134;28;20693;-82
2023/09/24 03:03:38;;;;;;;2.22;1.67;;;6.00;99.90;;;;;;2070550;28;20340;-82
2023/09/24 03:04:40;;;;;;;2.57;1.70;;;5.90;99.90;;;;;;2071606;28;20291;-82
2023/09/24 03:05:41;;;;;;;1.90;1.67;;;5.90;99.90;;;;;;2070764;28;20224;-82
2023/09/24 03:06:41;;;;;;;1.97;1.70;;;5.90;99.90;;;;;;2070967;28;20276;-82
2023/09/24 03:07:44;;;;;;;3.10;1.50;;;5.90;99.90;;;;;;2070424;28;20233;-82
2023/09/24 03:08:49;;;;;;;2.45;1.40;;;5.90;99.90;;;;;;2068712;28;20252;-81
2023/09/24 03:09:49;;;;;;;1.90;1.70;;;5.90;99.90;;;;;;2063115;28;20233;-81
2023/09/24 03:10:51;;;;;;;3.67;1.53;;;6.00;99.90;;;;;;2071376;28;20609;-81
2023/09/24 03:11:52;;;;;;;2.53;1.75;;;5.90;99.90;;;;;;2069304;28;20233;-81
2023/09/24 03:12:55;;;;;;;2.20;1.60;;;5.90;99.90;;;;;;2062719;28;20706;-81
2023/09/24 03:13:56;;;;;;;1.98;1.63;;;5.90;99.90;;;;;;2071135;28;20259;-82
2023/09/24 03:14:56;;;;;;;1.90;1.33;;;5.90;99.90;;;;;;2071447;28;20582;-82
2023/09/24 03:15:57;;;;;;;2.53;1.40;;;5.90;99.90;;;;;;2071464;28;20260;-81
2023/09/24 03:16:57;;;;;;;1.83;1.50;;;5.90;99.90;;;;;;2071363;28;20323;-81
2023/09/24 03:18:01;;;;;;;3.03;1.60;;;5.90;99.90;;;;;;2070948;28;20260;-81
2023/09/24 03:19:01;;;;;;;2.35;1.65;;;5.90;99.90;;;;;;2073467;28;20702;-80
2023/09/24 03:20:05;;;;;;;2.13;1.40;;;5.90;99.90;;;;;;2080941;28;20344;-81
2023/09/24 03:21:05;;;;;;;2.45;1.50;;;5.90;99.90;;;;;;2079307;28;20284;-80
2023/09/24 03:22:06;;;;;;;4.17;1.80;;;6.00;99.90;;;;;;2064247;28;20847;-82
2023/09/24 03:23:09;;;;;;;2.40;1.63;;;5.80;99.90;;;;;;2063728;28;20221;-81
2023/09/24 03:24:14;;;;;;;3.88;2.10;;;5.80;99.90;;;;;;2071316;28;20231;-81
2023/09/24 03:25:22;;;;;;;2.05;1.70;;;5.80;99.90;;;;;;2064033;28;20820;-81
2023/09/24 03:26:23;;;;;;;2.65;1.60;;;5.90;99.90;;;;;;2064873;28;20317;-81
2023/09/24 03:27:23;;;;;;;4.57;1.90;;;5.90;99.90;;;;;;2070368;28;20228;-83
2023/09/24 03:28:24;;;;;;;1.80;1.60;;;6.00;99.90;;;;;;2071804;28;20229;-82
2023/09/24 03:29:25;;;;;;;2.83;1.63;;;5.90;99.90;;;;;;2071154;28;20257;-81
2023/09/24 03:30:26;;;;;;;4.20;1.63;;;5.80;99.90;;;;;;2070853;28;20231;-82
2023/09/24 03:31:27;;;;;;;1.50;1.40;;;5.90;99.90;;;;;;2071706;28;20236;-81
2023/09/24 03:32:31;;;;;;;3.37;1.63;;;5.90;99.90;;;;;;2070960;28;20482;-82
2023/09/24 03:33:31;;;;;;;2.55;1.60;;;5.80;99.90;;;;;;2071221;28;20221;-82
2023/09/24 03:34:32;;;;;;;2.57;1.60;;;5.80;99.90;;;;;;2070843;28;20233;-82
2023/09/24 03:35:33;;;;;;;3.30;1.63;;;5.80;99.90;;;;;;2071013;28;20221;-82
2023/09/24 03:36:33;;;;;;;1.42;1.33;;;5.80;99.90;;;;;;2071461;28;20226;-82
2023/09/24 03:37:37;;;;;;;2.43;1.60;;;5.70;99.90;;;;;;2071202;28;20218;-83
2023/09/24 03:38:37;;;;;;;1.50;1.40;;;5.70;99.90;;;;;;2071036;28;20241;-81
2023/09/24 03:39:38;;;;;;;2.80;1.80;;;5.70;99.90;;;;;;2062136;28;20225;-83
2023/09/24 03:40:39;;;;;;;2.97;1.73;;;5.70;99.90;;;;;;2071928;28;20217;-83
2023/09/24 03:41:39;;;;;;;3.17;1.47;;;5.70;99.90;;;;;;2062532;28;20229;-81
2023/09/24 03:42:40;;;;;;;3.33;1.63;;;5.70;99.90;;;;;;2071567;28;20702;-83
2023/09/24 03:43:42;;;;;;;4.23;2.00;;;5.80;99.90;;;;;;2070661;28;20706;-82
2023/09/24 03:44:42;;;;;;;5.10;2.10;;;5.70;99.90;;;;;;2070789;28;20264;-81
2023/09/24 03:45:43;;;;;;;2.60;1.60;;;5.90;99.90;;;;;;2071954;28;20609;-81
2023/09/24 03:46:43;;;;;;;1.53;1.40;;;5.80;99.90;;;;;;2070680;28;20217;-82
2023/09/24 03:47:45;;;;;;;2.70;1.50;;;5.90;99.90;;;;;;2063569;28;20226;-82
2023/09/24 03:48:46;;;;;;;1.60;1.48;;;5.80;99.90;;;;;;2071098;28;20266;-82
2023/09/24 03:49:47;;;;;;;1.90;1.80;;;5.80;99.90;;;;;;2071215;28;20240;-82
2023/09/24 03:50:47;;;;;;;2.53;1.53;;;5.80;99.90;;;;;;2071168;28;20233;-81
2023/09/24 03:51:48;;;;;;;3.33;1.60;;;5.90;99.90;;;;;;2069637;28;20226;-82
2023/09/24 03:52:50;;;;;;;1.60;1.40;;;5.90;99.90;;;;;;2071742;28;20232;-82
2023/09/24 03:53:51;;;;;;;2.47;1.70;;;5.80;99.90;;;;;;2071664;28;20225;-82
2023/09/24 03:54:52;;;;;;;5.07;1.70;;;5.80;99.90;;;;;;2070968;28;20225;-81
2023/09/24 03:55:53;;;;;;;4.95;1.92;;;5.90;99.90;;;;;;2071453;28;20299;-82
2023/09/24 03:56:54;;;;;;;2.08;1.75;;;5.80;99.90;;;;;;2062591;28;20665;-82
2023/09/24 03:57:54;;;;;;;1.93;1.60;;;5.90;99.90;;;;;;2070995;28;20265;-83
2023/09/24 03:58:55;;;;;;;2.00;1.60;;;5.90;99.90;;;;;;2071187;28;20247;-82
2023/09/24 03:59:57;;;;;;;2.73;1.80;;;5.80;99.90;;;;;;2070765;28;20229;-82
2023/09/24 04:00:57;;;;;;;2.13;1.60;;;5.80;99.90;;;;;;2071757;28;20738;-82
2023/09/24 04:01:58;;;;;;;3.30;1.70;;;5.90;99.90;;;;;;2060374;28;20230;-82
2023/09/24 04:02:59;;;;;;;6.00;2.27;;;5.80;99.90;;;;;;2059318;28;20939;-81
2023/09/24 04:04:02;;;;;;;1.80;1.60;;;5.90;99.90;;;;;;2059209;28;20228;-81
2023/09/24 04:05:03;;;;;;;1.63;1.42;;;5.90;99.90;;;;;;2066899;28;20229;-82
2023/09/24 04:06:09;;;;;;;3.05;1.52;;;5.90;99.90;;;;;;2074469;28;20265;-80
2023/09/24 04:07:10;;;;;;;2.10;1.80;;;5.90;99.90;;;;;;2078377;28;20193;-80
2023/09/24 04:08:10;;;;;;;3.30;1.63;;;5.90;99.90;;;;;;2080060;28;20252;-81
2023/09/24 04:09:12;;;;;;;1.90;1.70;;;5.80;99.90;;;;;;2071425;28;20189;-81
2023/09/24 04:10:15;;;;;;;2.38;1.50;;;5.90;99.90;;;;;;2071624;28;20197;-80
2023/09/24 04:11:16;;;;;;;2.83;1.52;;;6.00;99.90;;;;;;2071256;28;20209;-80
2023/09/24 04:12:17;;;;;;;2.47;1.70;;;5.90;99.90;;;;;;2070856;28;20271;-82
2023/09/24 04:13:17;;;;;;;1.83;1.50;;;5.90;99.90;;;;;;2070478;28;20200;-81
2023/09/24 04:14:19;;;;;;;2.13;1.40;;;5.90;99.90;;;;;;2070374;28;20262;-81
2023/09/24 04:15:28;;;;;;;2.50;1.35;;;5.90;99.90;;;;;;2070468;28;20672;-81
2023/09/24 04:16:28;;;;;;;2.22;1.58;;;5.90;99.90;;;;;;2066739;28;20236;-81
2023/09/24 04:17:29;;;;;;;1.77;1.40;;;5.80;99.90;;;;;;2070342;28;20242;-81
2023/09/24 04:18:29;;;;;;;1.40;1.30;;;5.90;99.90;;;;;;2062597;28;20217;-80
2023/09/24 04:19:32;;;;;;;1.87;1.40;;;5.80;99.90;;;;;;2070248;28;20601;-81
2023/09/24 04:20:33;;;;;;;1.98;1.35;;;5.70;99.90;;;;;;2054257;28;20690;-80
2023/09/24 04:21:33;;;;;;;1.33;1.23;;;5.70;99.90;;;;;;2055645;28;20288;-80
2023/09/24 04:22:34;;;;;;;1.63;1.30;;;5.80;99.90;;;;;;2062749;28;20218;-81
2023/09/24 04:23:34;;;;;;;1.67;1.40;;;5.80;99.90;;;;;;2070679;28;20218;-82
2023/09/24 04:24:36;;;;;;;1.50;1.20;;;5.70;99.90;;;;;;2071441;28;20236;-82
2023/09/24 04:25:37;;;;;;;2.05;1.35;;;5.70;99.90;;;;;;2062958;28;20235;-81
2023/09/24 04:26:39;;;;;;;2.20;1.20;;;5.70;99.90;;;;;;2063322;28;20290;-81
2023/09/24 04:27:41;;;;;;;2.35;1.58;;;5.70;99.90;;;;;;2070907;28;20221;-81
2023/09/24 04:28:42;;;;;;;1.40;1.30;;;5.60;99.90;;;;;;2071132;28;20228;-81
2023/09/24 04:29:43;;;;;;;3.80;1.80;;;5.60;99.90;;;;;;2070544;28;20224;-82
2023/09/24 04:30:45;;;;;;;1.70;1.20;;;5.60;99.90;;;;;;2070787;28;20224;-80
2023/09/24 04:31:45;;;;;;;1.45;1.35;;;5.60;99.90;;;;;;2060320;28;20297;-82
2023/09/24 04:32:51;;;;;;;1.90;1.60;;;5.60;99.90;;;;;;2068509;28;20221;-82
2023/09/24 04:33:52;;;;;;;2.03;1.40;;;5.60;99.90;;;;;;2076998;28;20305;-81
2023/09/24 04:34:54;;;;;;;3.10;1.50;;;5.50;99.90;;;;;;2070426;28;20229;-81
2023/09/24 04:35:55;;;;;;;2.10;1.63;;;5.50;99.90;;;;;;2070286;28;20359;-81
2023/09/24 04:36:55;;;;;;;2.93;1.50;;;5.50;99.90;;;;;;2062429;28;20229;-82
2023/09/24 04:37:56;;;;;;;1.57;1.47;;;5.50;99.90;;;;;;2077309;28;20248;-80
2023/09/24 04:38:56;;;;;;;1.70;1.60;;;5.50;99.90;;;;;;2077811;28;20240;-80
2023/09/24 04:39:58;;;;;;;2.20;1.60;;;5.50;99.90;;;;;;2073808;28;20236;-82
2023/09/24 04:40:59;;;;;;;2.28;1.40;;;5.50;99.90;;;;;;2071682;28;20261;-82
2023/09/24 04:41:59;;;;;;;2.10;1.63;;;5.40;99.90;;;;;;2063163;28;20857;-82
2023/09/24 04:43:00;;;;;;;2.13;1.40;;;5.50;99.90;;;;;;2062994;28;20238;-82
2023/09/24 04:44:00;;;;;;;2.00;1.60;;;5.50;99.90;;;;;;2071092;28;20308;-82
2023/09/24 04:45:01;;;;;;;2.47;1.60;;;5.40;99.90;;;;;;2070620;28;20222;-83
2023/09/24 04:46:05;;;;;;;2.43;1.50;;;5.40;99.90;;;;;;2071965;28;20248;-83
2023/09/24 04:47:05;;;;;;;1.85;1.40;;;5.40;99.90;;;;;;2069539;28;20220;-81
2023/09/24 04:48:06;;;;;;;2.03;1.70;;;5.40;99.90;;;;;;2075896;28;20190;-81
2023/09/24 04:49:08;;;;;;;1.73;1.60;;;5.40;99.90;;;;;;2072195;28;20189;-80
2023/09/24 04:50:12;;;;;;;1.65;1.40;;;5.50;99.90;;;;;;2076602;28;20181;-80
2023/09/24 04:51:13;;;;;;;1.40;1.30;;;5.50;99.90;;;;;;2072578;28;20245;-82
2023/09/24 04:52:14;;;;;;;2.37;1.20;;;5.40;99.90;;;;;;2071149;28;20228;-83
2023/09/24 04:53:14;;;;;;;2.50;1.30;;;5.40;99.90;;;;;;2070943;28;20250;-82
2023/09/24 04:54:15;;;;;;;1.53;1.40;;;5.40;99.90;;;;;;2070795;28;20617;-83
2023/09/24 04:55:16;;;;;;;1.50;1.40;;;5.30;99.90;;;;;;2062781;28;20636;-83
2023/09/24 04:56:17;;;;;;;2.28;1.90;;;5.30;99.90;;;;;;2063227;28;20217;-82
2023/09/24 04:57:18;;;;;;;2.60;1.50;;;5.30;99.90;;;;;;2070680;28;20247;-82
2023/09/24 04:58:18;;;;;;;1.50;1.35;;;5.30;99.90;;;;;;2071710;28;20193;-82
2023/09/24 04:59:19;;;;;;;1.60;1.40;;;5.30;99.90;;;;;;2070350;28;20205;-82
2023/09/24 05:00:20;;;;;;;2.77;1.30;;;5.30;99.90;;;;;;2070628;28;20227;-82
2023/09/24 05:01:21;;;;;;;2.28;1.35;;;5.30;99.90;;;;;;2062831;28;20212;-82
2023/09/24 05:02:23;;;;;;;2.45;2.10;;;5.40;99.90;;;;;;2071088;28;20759;-82
2023/09/24 05:03:24;;;;;;;2.47;1.23;;;5.30;99.90;;;;;;2071270;28;20245;-82
2023/09/24 05:04:25;;;;;;;2.33;1.63;;;5.30;99.90;;;;;;2070797;28;20248;-82
2023/09/24 05:05:26;;;;;;;1.73;1.33;;;5.20;99.90;;;;;;2069066;28;20347;-83
2023/09/24 05:06:27;;;;;;;1.93;1.30;;;5.20;99.90;;;;;;2070781;28;20300;-81
2023/09/24 05:07:27;;;;;;;2.30;1.50;;;5.30;99.90;;;;;;2070351;28;21113;-82
2023/09/24 05:08:28;;;;;;;1.43;1.30;;;5.30;99.90;;;;;;2071764;28;20236;-82
2023/09/24 05:09:30;;;;;;;1.60;1.50;;;5.30;99.90;;;;;;2070675;28;20221;-81
2023/09/24 05:10:32;;;;;;;3.78;1.58;;;5.30;99.90;;;;;;2071488;28;20228;-81
2023/09/24 05:11:33;;;;;;;1.80;1.40;;;5.30;99.90;;;;;;2077562;28;20225;-80
2023/09/24 05:12:33;;;;;;;1.57;1.47;;;5.30;99.90;;;;;;2081030;28;20213;-80
2023/09/24 05:13:35;;;;;;;1.90;1.30;;;5.30;99.90;;;;;;2079067;28;20271;-83
2023/09/24 05:14:35;;;;;;;1.55;1.42;;;5.30;99.90;;;;;;2071571;28;20225;-82
2023/09/24 05:15:36;;;;;;;1.57;1.30;;;5.40;99.90;;;;;;2063127;28;20233;-82
2023/09/24 05:16:37;;;;;;;3.88;1.48;;;5.30;99.90;;;;;;2071316;28;20248;-81
2023/09/24 05:17:37;;;;;;;3.70;1.47;;;5.30;99.90;;;;;;2063221;28;20316;-82
2023/09/24 05:18:38;;;;;;;1.70;1.53;;;5.30;99.90;;;;;;2067431;28;20331;-82
2023/09/24 05:19:39;;;;;;;1.43;1.27;;;5.30;99.90;;;;;;2070433;28;20243;-82
2023/09/24 05:20:39;;;;;;;2.53;1.30;;;5.30;99.90;;;;;;2071001;28;20793;-82
2023/09/24 05:21:40;;;;;;;2.57;1.60;;;5.40;99.90;;;;;;2071744;28;20237;-83
2023/09/24 05:22:40;;;;;;;1.67;1.27;;;5.30;99.90;;;;;;2071292;28;20248;-82
2023/09/24 05:23:41;;;;;;;2.30;1.90;;;5.30;99.90;;;;;;2064242;28;20363;-81
2023/09/24 05:24:41;;;;;;;1.70;1.60;;;5.30;99.90;;;;;;2064699;28;20237;-82